createdAt,value
2017-05-21T00:02:06.115Z,19.38
2017-05-21T00:04:35.293Z,17.42
2017-05-21T00:07:04.239Z,17.28
2017-05-21T00:09:33.234Z,16.88
2017-05-21T00:12:02.531Z,19.38
2017-05-21T00:14:31.421Z,16.00
2017-05-21T00:17:00.323Z,16.50
2017-05-21T00:19:29.573Z,17.50
2017-05-21T00:21:58.531Z,16.30
2017-05-21T00:24:26.679Z,18.92
2017-05-21T00:26:55.900Z,17.60
2017-05-21T00:29:24.903Z,17.10
2017-05-21T00:31:53.804Z,15.82
2017-05-21T00:34:23.156Z,15.56
2017-05-21T00:36:52.164Z,16.48
2017-05-21T00:39:21.185Z,16.42
2017-05-21T00:41:50.587Z,17.24
2017-05-21T00:44:19.534Z,15.94
2017-05-21T00:46:48.512Z,15.16
2017-05-21T00:49:17.784Z,17.10
2017-05-21T00:51:46.692Z,17.30
2017-05-21T00:54:15.771Z,16.98
2017-05-21T00:56:45.121Z,18.10
2017-05-21T00:59:14.043Z,16.70
2017-05-21T01:01:42.979Z,15.24
2017-05-21T01:04:12.295Z,15.88
2017-05-21T01:06:41.238Z,17.02
2017-05-21T01:09:10.165Z,17.36
2017-05-21T01:11:39.429Z,17.52
2017-05-21T01:14:08.354Z,17.44
2017-05-21T01:16:37.397Z,17.34
2017-05-21T01:19:06.614Z,16.54
2017-05-21T01:21:35.554Z,16.14
2017-05-21T01:24:04.506Z,17.88
2017-05-21T01:26:32.980Z,19.42
2017-05-21T01:29:01.866Z,21.50
2017-05-21T01:31:30.836Z,22.30
2017-05-21T01:34:00.154Z,20.88
2017-05-21T01:36:29.185Z,20.70
2017-05-21T01:38:58.144Z,20.38
2017-05-21T01:41:27.440Z,20.58
2017-05-21T01:43:56.349Z,21.28
2017-05-21T01:46:25.316Z,19.82
2017-05-21T01:48:54.506Z,20.50
2017-05-21T01:51:23.477Z,19.08
2017-05-21T01:53:52.370Z,17.94
2017-05-21T01:56:21.607Z,18.50
2017-05-21T01:58:50.534Z,19.80
2017-05-21T02:01:19.432Z,18.46
2017-05-21T02:03:48.729Z,19.76
2017-05-21T02:06:17.635Z,17.78
2017-05-21T02:08:46.526Z,19.60
2017-05-21T02:11:15.812Z,19.04
2017-05-21T02:13:44.713Z,18.54
2017-05-21T02:16:13.633Z,18.36
2017-05-21T02:18:42.849Z,19.22
2017-05-21T02:21:11.825Z,19.16
2017-05-21T02:23:40.791Z,17.48
2017-05-21T02:26:10.099Z,18.08
2017-05-21T02:28:39.087Z,18.34
2017-05-21T02:31:08.008Z,18.50
2017-05-21T02:33:37.215Z,20.68
2017-05-21T02:36:06.114Z,17.86
2017-05-21T02:38:35.004Z,20.32
2017-05-21T02:41:04.257Z,19.44
2017-05-21T02:43:33.475Z,17.76
2017-05-21T02:46:02.360Z,19.16
2017-05-21T02:48:31.548Z,18.50
2017-05-21T02:50:59.673Z,18.84
2017-05-21T02:53:28.571Z,18.08
2017-05-21T02:55:57.921Z,18.44
2017-05-21T02:58:26.830Z,21.60
2017-05-21T03:00:55.774Z,19.54
2017-05-21T03:03:24.996Z,18.46
2017-05-21T03:05:54.008Z,19.98
2017-05-21T03:08:22.938Z,18.64
2017-05-21T03:10:52.166Z,21.00
2017-05-21T03:13:21.115Z,46.30
2017-05-21T03:15:50.582Z,55.52
2017-05-21T03:18:19.930Z,25.76
2017-05-21T03:20:48.827Z,19.30
2017-05-21T03:23:17.740Z,18.04
2017-05-21T03:25:46.943Z,17.12
2017-05-21T03:28:15.847Z,18.64
2017-05-21T03:30:44.740Z,18.42
2017-05-21T03:33:14.028Z,18.78
2017-05-21T03:35:42.930Z,19.60
2017-05-21T03:38:11.821Z,18.18
2017-05-21T03:40:41.057Z,19.28
2017-05-21T03:43:09.954Z,18.34
2017-05-21T03:45:38.875Z,18.46
2017-05-21T03:48:08.080Z,18.88
2017-05-21T03:50:36.997Z,18.38
2017-05-21T03:53:06.004Z,18.56
2017-05-21T03:55:34.942Z,19.70
2017-05-21T03:58:03.938Z,18.38
2017-05-21T04:00:33.103Z,17.46
2017-05-21T04:03:01.996Z,19.12
2017-05-21T04:05:30.897Z,18.44
2017-05-21T04:08:00.112Z,18.62
2017-05-21T04:10:28.998Z,18.82
2017-05-21T04:12:57.888Z,17.74
2017-05-21T04:15:27.074Z,17.20
2017-05-21T04:17:56.008Z,19.64
2017-05-21T04:20:24.899Z,16.96
2017-05-21T04:22:54.093Z,18.24
2017-05-21T04:25:23.014Z,16.02
2017-05-21T04:27:51.901Z,17.28
2017-05-21T04:30:20.336Z,17.70
2017-05-21T04:32:49.233Z,17.70
2017-05-21T04:35:17.344Z,16.98
2017-05-21T04:37:46.648Z,17.72
2017-05-21T04:40:15.549Z,16.74
2017-05-21T04:42:44.436Z,16.84
2017-05-21T04:45:13.621Z,16.06
2017-05-21T04:47:42.518Z,18.40
2017-05-21T04:50:11.828Z,15.94
2017-05-21T04:52:41.004Z,15.32
2017-05-21T04:55:09.144Z,15.50
2017-05-21T04:57:38.056Z,14.70
2017-05-21T05:00:07.250Z,14.58
2017-05-21T05:02:36.137Z,14.42
2017-05-21T05:05:05.051Z,15.22
2017-05-21T05:07:34.241Z,12.82
2017-05-21T05:10:03.271Z,14.10
2017-05-21T05:12:32.368Z,13.60
2017-05-21T05:15:01.998Z,14.28
2017-05-21T05:17:30.930Z,13.78
2017-05-21T05:19:59.859Z,12.70
2017-05-21T05:22:29.096Z,12.86
2017-05-21T05:24:58.080Z,13.82
2017-05-21T05:27:26.994Z,13.08
2017-05-21T05:29:56.327Z,14.44
2017-05-21T05:32:25.250Z,12.92
2017-05-21T05:34:54.256Z,12.22
2017-05-21T05:37:23.450Z,12.60
2017-05-21T05:39:52.361Z,12.74
2017-05-21T05:42:21.261Z,12.40
2017-05-21T05:44:51.316Z,11.38
2017-05-21T05:47:20.289Z,12.10
2017-05-21T05:49:49.185Z,11.20
2017-05-21T05:52:17.646Z,11.06
2017-05-21T05:54:46.555Z,12.20
2017-05-21T05:57:16.348Z,12.22
2017-05-21T05:59:45.543Z,11.52
2017-05-21T06:02:14.445Z,11.46
2017-05-21T06:04:43.341Z,10.88
2017-05-21T06:07:12.523Z,10.82
2017-05-21T06:09:41.416Z,13.18
2017-05-21T06:12:10.287Z,10.98
2017-05-21T06:14:39.528Z,10.44
2017-05-21T06:17:08.426Z,10.78
2017-05-21T06:19:37.363Z,8.52
2017-05-21T06:22:06.656Z,11.10
2017-05-21T06:24:35.556Z,10.02
2017-05-21T06:27:03.725Z,9.88
2017-05-21T06:29:32.903Z,8.86
2017-05-21T06:32:01.864Z,10.88
2017-05-21T06:34:30.796Z,10.60
2017-05-21T06:36:59.998Z,9.88
2017-05-21T06:39:28.971Z,9.78
2017-05-21T06:41:57.878Z,9.40
2017-05-21T06:44:27.073Z,9.22
2017-05-21T06:46:56.056Z,7.26
2017-05-21T06:49:24.962Z,7.54
2017-05-21T06:51:54.240Z,6.84
2017-05-21T06:54:23.698Z,6.84
2017-05-21T06:56:52.603Z,7.42
2017-05-21T06:59:21.826Z,6.08
2017-05-21T07:01:50.733Z,5.54
2017-05-21T07:04:19.677Z,5.24
2017-05-21T07:06:48.875Z,6.04
2017-05-21T07:09:17.878Z,5.06
2017-05-21T07:11:46.778Z,6.02
2017-05-21T07:14:16.023Z,5.44
2017-05-21T07:16:44.891Z,5.44
2017-05-21T07:19:13.994Z,4.90
2017-05-21T07:21:43.914Z,4.54
2017-05-21T07:24:12.940Z,4.52
2017-05-21T07:26:41.919Z,5.24
2017-05-21T07:29:11.213Z,8.18
2017-05-21T07:31:40.227Z,6.52
2017-05-21T07:34:09.865Z,5.52
2017-05-21T07:36:39.223Z,5.22
2017-05-21T07:39:08.132Z,5.40
2017-05-21T07:41:37.092Z,5.10
2017-05-21T07:44:06.331Z,5.36
2017-05-21T07:46:35.243Z,5.82
2017-05-21T07:49:04.209Z,6.58
2017-05-21T07:51:33.466Z,6.46
2017-05-21T07:54:02.414Z,6.80
2017-05-21T07:56:31.299Z,8.96
2017-05-21T07:59:00.747Z,8.50
2017-05-21T08:01:29.638Z,11.96
2017-05-21T08:03:57.764Z,9.20
2017-05-21T08:06:27.033Z,25.28
2017-05-21T08:08:56.037Z,24.34
2017-05-21T08:11:24.929Z,22.32
2017-05-21T08:13:54.127Z,17.90
2017-05-21T08:16:22.264Z,25.44
2017-05-21T08:18:51.206Z,25.16
2017-05-21T08:21:20.509Z,15.48
2017-05-21T08:23:49.476Z,11.60
2017-05-21T08:26:18.518Z,12.02
2017-05-21T08:28:47.732Z,12.08
2017-05-21T08:31:16.682Z,6.40
2017-05-21T08:33:45.623Z,8.34
2017-05-21T08:36:14.836Z,7.30
2017-05-21T08:38:43.737Z,5.28
2017-05-21T08:41:12.688Z,5.90
2017-05-21T08:43:42.005Z,5.84
2017-05-21T08:46:10.894Z,5.44
2017-05-21T08:48:39.884Z,4.44
2017-05-21T08:51:09.089Z,5.40
2017-05-21T08:53:38.444Z,7.34
2017-05-21T08:56:07.696Z,4.76
2017-05-21T08:58:38.317Z,4.36
2017-05-21T09:01:07.225Z,15.94
2017-05-21T09:03:36.633Z,13.34
2017-05-21T09:06:06.640Z,10.40
2017-05-21T09:08:35.848Z,18.78
2017-05-21T09:11:04.885Z,26.12
2017-05-21T09:13:35.266Z,13.24
2017-05-21T09:16:04.873Z,8.54
2017-05-21T09:18:34.115Z,26.08
2017-05-21T09:21:02.652Z,22.60
2017-05-21T09:23:31.700Z,32.86
2017-05-21T09:26:00.605Z,13.88
2017-05-21T09:28:29.181Z,10.84
2017-05-21T09:30:58.232Z,14.24
2017-05-21T09:33:27.166Z,8.74
2017-05-21T09:35:56.462Z,10.32
2017-05-21T09:38:25.402Z,7.50
2017-05-21T09:40:54.403Z,12.36
2017-05-21T09:43:23.855Z,5.70
2017-05-21T09:45:52.751Z,6.96
2017-05-21T09:48:21.663Z,7.38
2017-05-21T09:50:50.914Z,6.46
2017-05-21T09:53:19.799Z,5.88
2017-05-21T09:55:48.685Z,23.62
2017-05-21T09:58:17.940Z,30.94
2017-05-21T10:00:46.884Z,5.18
2017-05-21T10:03:15.019Z,5.00
2017-05-21T10:05:44.178Z,7.16
2017-05-21T10:08:13.471Z,4.72
2017-05-21T10:10:42.394Z,4.66
2017-05-21T10:13:11.673Z,4.52
2017-05-21T10:15:40.610Z,5.48
2017-05-21T10:18:09.498Z,4.36
2017-05-21T10:20:38.663Z,4.02
2017-05-21T10:23:06.816Z,7.12
2017-05-21T10:25:35.722Z,3.64
2017-05-21T10:28:04.918Z,7.04
2017-05-21T10:30:33.855Z,3.98
2017-05-21T10:33:02.003Z,4.28
2017-05-21T10:35:31.183Z,3.64
2017-05-21T10:38:00.083Z,2.34
2017-05-21T10:40:29.158Z,3.22
2017-05-21T10:42:58.467Z,3.70
2017-05-21T10:45:27.364Z,13.96
2017-05-21T10:47:56.409Z,7.58
2017-05-21T10:50:26.359Z,2.92
2017-05-21T10:52:55.284Z,1.98
2017-05-21T10:55:24.259Z,4.08
2017-05-21T10:57:53.453Z,2.08
2017-05-21T11:00:22.655Z,1.96
2017-05-21T11:02:52.592Z,2.62
2017-05-21T11:05:21.808Z,2.90
2017-05-21T11:07:50.772Z,2.54
2017-05-21T11:10:20.300Z,7.42
2017-05-21T11:12:49.497Z,2.74
2017-05-21T11:15:18.449Z,1.90
2017-05-21T11:17:47.364Z,2.06
2017-05-21T11:20:16.624Z,2.40
2017-05-21T11:22:45.749Z,3.00
2017-05-21T11:25:14.706Z,2.88
2017-05-21T11:27:43.990Z,2.64
2017-05-21T11:30:12.906Z,6.50
2017-05-21T11:32:41.802Z,7.96
2017-05-21T11:35:11.009Z,2.14
2017-05-21T11:37:40.021Z,1.98
2017-05-21T11:40:09.740Z,2.32
2017-05-21T11:42:39.048Z,1.96
2017-05-21T11:45:07.971Z,2.38
2017-05-21T11:47:36.877Z,2.02
2017-05-21T11:50:05.365Z,1.96
2017-05-21T11:52:34.354Z,2.30
2017-05-21T11:55:03.356Z,1.96
2017-05-21T11:57:32.579Z,1.50
2017-05-21T12:00:01.795Z,36.32
2017-05-21T12:02:30.817Z,10.38
2017-05-21T12:05:00.129Z,1.90
2017-05-21T12:07:29.045Z,4.84
2017-05-21T12:09:57.245Z,3.16
2017-05-21T12:12:26.423Z,2.36
2017-05-21T12:14:55.351Z,1.86
2017-05-21T12:17:24.493Z,2.84
2017-05-21T12:19:53.830Z,1.84
2017-05-21T12:22:22.715Z,1.42
2017-05-21T12:24:51.605Z,1.96
2017-05-21T12:27:20.821Z,1.82
2017-05-21T12:29:49.730Z,1.92
2017-05-21T12:32:18.633Z,1.46
2017-05-21T12:34:47.838Z,2.10
2017-05-21T12:37:16.735Z,2.52
2017-05-21T12:39:44.877Z,4.40
2017-05-21T12:42:14.161Z,2.86
2017-05-21T12:44:43.086Z,1.32
2017-05-21T12:47:11.185Z,2.90
2017-05-21T12:49:40.420Z,2.70
2017-05-21T12:52:09.345Z,2.64
2017-05-21T12:54:38.273Z,1.92
2017-05-21T12:57:06.747Z,1.50
2017-05-21T12:59:35.698Z,1.62
2017-05-21T13:02:04.589Z,1.68
2017-05-21T13:04:33.781Z,4.26
2017-05-21T13:07:02.747Z,1.36
2017-05-21T13:09:31.651Z,1.56
2017-05-21T13:12:00.930Z,1.16
2017-05-21T13:14:29.820Z,1.20
2017-05-21T13:16:58.749Z,3.40
2017-05-21T13:19:27.952Z,2.24
2017-05-21T13:21:56.855Z,1.88
2017-05-21T13:24:25.735Z,2.30
2017-05-21T13:26:54.907Z,1.90
2017-05-21T13:29:23.201Z,1.84
2017-05-21T13:31:52.175Z,2.50
2017-05-21T13:34:21.394Z,2.86
2017-05-21T13:36:50.303Z,1.92
2017-05-21T13:39:18.426Z,2.12
2017-05-21T13:41:47.719Z,2.36
2017-05-21T13:44:16.620Z,2.82
2017-05-21T13:46:44.965Z,1.62
2017-05-21T13:49:14.272Z,2.82
2017-05-21T13:51:43.181Z,1.44
2017-05-21T13:54:12.092Z,2.10
2017-05-21T13:56:41.252Z,4.68
2017-05-21T13:59:09.370Z,2.46
2017-05-21T14:01:38.274Z,2.56
2017-05-21T14:04:06.682Z,1.88
2017-05-21T14:06:35.589Z,1.78
2017-05-21T14:09:04.523Z,2.32
2017-05-21T14:11:33.713Z,2.02
2017-05-21T14:14:02.599Z,2.52
2017-05-21T14:16:31.497Z,1.78
2017-05-21T14:19:00.784Z,2.14
2017-05-21T14:21:29.682Z,3.34
2017-05-21T14:23:58.570Z,1.40
2017-05-21T14:26:27.719Z,1.90
2017-05-21T14:28:56.602Z,2.24
2017-05-21T14:31:24.711Z,1.50
2017-05-21T14:33:53.892Z,1.40
2017-05-21T14:36:22.789Z,2.56
2017-05-21T14:38:51.691Z,2.28
2017-05-21T14:41:20.945Z,2.68
2017-05-21T14:43:49.916Z,1.84
2017-05-21T14:46:18.984Z,2.20
2017-05-21T14:48:48.590Z,2.16
2017-05-21T14:51:18.049Z,1.94
2017-05-21T14:53:47.093Z,1.98
2017-05-21T14:56:16.384Z,2.24
2017-05-21T14:58:45.358Z,2.68
2017-05-21T15:01:14.412Z,2.06
2017-05-21T15:03:43.699Z,1.72
2017-05-21T15:06:12.609Z,3.52
2017-05-21T15:08:41.514Z,2.20
2017-05-21T15:11:10.687Z,2.32
2017-05-21T15:13:39.637Z,3.52
2017-05-21T15:16:08.578Z,1.86
2017-05-21T15:18:36.976Z,3.04
2017-05-21T15:21:05.894Z,2.36
2017-05-21T15:23:34.805Z,2.32
2017-05-21T15:26:03.990Z,2.54
2017-05-21T15:28:32.884Z,2.20
2017-05-21T15:31:01.822Z,2.98
2017-05-21T15:33:30.983Z,2.72
2017-05-21T15:35:59.937Z,3.12
2017-05-21T15:38:28.842Z,3.56
2017-05-21T15:40:58.063Z,2.90
2017-05-21T15:43:27.400Z,2.98
2017-05-21T15:45:56.344Z,3.38
2017-05-21T15:48:24.812Z,48.66
2017-05-21T15:50:53.757Z,19.72
2017-05-21T15:53:22.718Z,12.80
2017-05-21T15:55:52.151Z,21.88
2017-05-21T15:58:21.062Z,46.26
2017-05-21T16:00:49.996Z,23.14
2017-05-21T16:03:19.213Z,42.54
2017-05-21T16:05:48.101Z,29.46
2017-05-21T16:08:16.257Z,36.72
2017-05-21T16:10:45.539Z,16.64
2017-05-21T16:13:14.995Z,16.06
2017-05-21T16:15:43.971Z,25.86
2017-05-21T16:18:13.220Z,14.26
2017-05-21T16:20:42.155Z,5.90
2017-05-21T16:23:11.054Z,9.72
2017-05-21T16:25:40.376Z,10.26
2017-05-21T16:28:09.293Z,4.42
2017-05-21T16:30:37.466Z,4.28
2017-05-21T16:33:06.704Z,5.30
2017-05-21T16:35:35.637Z,4.34
2017-05-21T16:38:04.562Z,3.92
2017-05-21T16:40:33.005Z,2.96
2017-05-21T16:43:01.946Z,3.32
2017-05-21T16:45:30.874Z,5.30
2017-05-21T16:48:00.409Z,4.66
2017-05-21T16:50:29.364Z,3.24
2017-05-21T16:52:58.269Z,3.30
2017-05-21T16:55:27.457Z,5.36
2017-05-21T16:57:56.455Z,3.60
2017-05-21T17:00:25.402Z,3.56
2017-05-21T17:02:54.615Z,2.98
2017-05-21T17:05:23.508Z,3.12
2017-05-21T17:07:52.419Z,5.88
2017-05-21T17:10:21.688Z,6.74
2017-05-21T17:12:50.764Z,3.92
2017-05-21T17:15:19.764Z,3.20
2017-05-21T17:17:48.985Z,3.84
2017-05-21T17:20:17.948Z,17.90
2017-05-21T17:22:46.089Z,11.70
2017-05-21T17:25:15.385Z,9.84
2017-05-21T17:27:44.401Z,34.60
2017-05-21T17:30:13.319Z,30.40
2017-05-21T17:32:42.564Z,32.40
2017-05-21T17:35:10.699Z,22.58
2017-05-21T17:37:39.583Z,24.58
2017-05-21T17:40:08.929Z,45.90
2017-05-21T17:42:38.052Z,19.52
2017-05-21T17:45:06.948Z,13.80
2017-05-21T17:47:36.281Z,20.46
2017-05-21T17:50:05.322Z,11.24
2017-05-21T17:52:34.225Z,9.08
2017-05-21T17:55:03.486Z,9.68
2017-05-21T17:57:32.503Z,7.36
2017-05-21T18:00:01.414Z,7.38
2017-05-21T18:02:30.726Z,7.80
2017-05-21T18:04:59.787Z,7.12
2017-05-21T18:07:28.733Z,94.10
2017-05-21T18:09:58.794Z,37.00
2017-05-21T18:12:27.756Z,7.60
2017-05-21T18:14:56.686Z,5.74
2017-05-21T18:17:26.067Z,6.30
2017-05-21T18:19:55.007Z,5.34
2017-05-21T18:22:23.947Z,6.04
2017-05-21T18:24:53.232Z,5.08
2017-05-21T18:27:22.174Z,5.64
2017-05-21T18:29:51.069Z,4.76
2017-05-21T18:32:20.425Z,6.74
2017-05-21T18:34:48.682Z,5.74
2017-05-21T18:37:17.756Z,4.74
2017-05-21T18:39:47.021Z,5.76
2017-05-21T18:42:15.934Z,5.64
2017-05-21T18:44:44.857Z,10.12
2017-05-21T18:47:14.110Z,56.90
2017-05-21T18:49:43.037Z,36.58
2017-05-21T18:52:12.009Z,47.24
2017-05-21T18:54:41.193Z,68.64
2017-05-21T18:57:10.198Z,77.84
2017-05-21T18:59:39.144Z,41.28
2017-05-21T19:02:08.371Z,64.12
2017-05-21T19:04:37.261Z,45.46
2017-05-21T19:07:06.191Z,26.06
2017-05-21T19:09:35.389Z,6.68
2017-05-21T19:12:04.334Z,6.46
2017-05-21T19:14:33.360Z,5.80
2017-05-21T19:17:02.646Z,12.18
2017-05-21T19:19:31.588Z,6.70
2017-05-21T19:22:00.491Z,6.92
2017-05-21T19:24:29.837Z,6.70
2017-05-21T19:26:58.794Z,7.08
2017-05-21T19:29:27.753Z,49.88
2017-05-21T19:31:57.204Z,10.12
2017-05-21T19:34:26.115Z,8.02
2017-05-21T19:36:55.092Z,7.44
2017-05-21T19:39:24.319Z,6.52
2017-05-21T19:41:53.241Z,6.40
2017-05-21T19:44:22.393Z,6.60
2017-05-21T19:46:50.839Z,7.16
2017-05-21T19:49:19.773Z,6.94
2017-05-21T19:51:48.755Z,6.98
2017-05-21T19:54:17.329Z,7.70
2017-05-21T19:56:46.259Z,7.62
2017-05-21T19:59:15.163Z,6.82
2017-05-21T20:01:44.403Z,8.04
2017-05-21T20:04:13.332Z,6.52
2017-05-21T20:06:42.264Z,7.78
2017-05-21T20:09:11.498Z,8.62
2017-05-21T20:11:40.438Z,8.68
2017-05-21T20:14:09.303Z,8.10
2017-05-21T20:16:38.485Z,9.78
2017-05-21T20:19:07.370Z,8.00
2017-05-21T20:21:36.370Z,8.38
2017-05-21T20:24:05.632Z,7.02
2017-05-21T20:26:34.572Z,8.56
2017-05-21T20:29:03.507Z,7.48
2017-05-21T20:31:32.685Z,8.22
2017-05-21T20:34:01.667Z,8.12
2017-05-21T20:36:30.592Z,7.64
2017-05-21T20:38:59.859Z,8.04
2017-05-21T20:41:29.061Z,8.38
2017-05-21T20:43:57.929Z,8.22
2017-05-21T20:46:27.181Z,105.90
2017-05-21T20:48:56.075Z,93.70
2017-05-21T20:51:24.221Z,13.14
2017-05-21T20:53:53.451Z,9.10
2017-05-21T20:56:22.342Z,6.34
2017-05-21T20:58:51.225Z,7.26
2017-05-21T21:01:20.439Z,7.96
2017-05-21T21:03:49.406Z,7.84
2017-05-21T21:06:18.308Z,9.74
2017-05-21T21:08:47.491Z,8.04
2017-05-21T21:11:16.431Z,10.84
2017-05-21T21:13:45.401Z,9.58
2017-05-21T21:16:14.731Z,11.42
2017-05-21T21:18:43.708Z,14.40
2017-05-21T21:21:12.668Z,11.20
2017-05-21T21:23:41.912Z,10.02
2017-05-21T21:26:10.843Z,9.38
2017-05-21T21:28:39.831Z,11.68
2017-05-21T21:31:09.108Z,9.74
2017-05-21T21:33:38.023Z,14.40
2017-05-21T21:36:06.953Z,13.48
2017-05-21T21:38:35.452Z,9.84
2017-05-21T21:41:04.378Z,10.24
2017-05-21T21:43:33.292Z,10.98
2017-05-21T21:46:02.572Z,9.68
2017-05-21T21:48:31.424Z,10.28
2017-05-21T21:51:00.436Z,10.72
2017-05-21T21:53:29.633Z,13.32
2017-05-21T21:55:58.585Z,11.98
2017-05-21T21:58:27.518Z,10.48
2017-05-21T22:00:56.755Z,11.04
2017-05-21T22:03:25.661Z,9.96
2017-05-21T22:05:54.629Z,10.92
2017-05-21T22:08:23.870Z,12.24
2017-05-21T22:10:52.773Z,10.32
2017-05-21T22:13:21.677Z,10.00
2017-05-21T22:15:50.925Z,10.32
2017-05-21T22:18:19.847Z,9.98
2017-05-21T22:20:48.754Z,9.66
2017-05-21T22:23:18.122Z,10.10
2017-05-21T22:25:47.060Z,9.50
2017-05-21T22:28:16.009Z,9.84
2017-05-21T22:30:45.240Z,10.96
2017-05-21T22:33:14.137Z,10.06
2017-05-21T22:35:43.056Z,10.12
2017-05-21T22:38:12.261Z,10.02
2017-05-21T22:40:41.189Z,9.72
2017-05-21T22:43:10.191Z,10.08
2017-05-21T22:45:39.417Z,9.82
2017-05-21T22:48:07.698Z,10.68
2017-05-21T22:50:36.593Z,10.06
2017-05-21T22:53:05.804Z,9.88
2017-05-21T22:55:33.927Z,10.26
2017-05-21T22:58:03.445Z,12.12
2017-05-21T23:00:32.628Z,11.02
2017-05-21T23:03:01.632Z,20.02
2017-05-21T23:05:30.552Z,21.44
2017-05-21T23:07:59.006Z,20.16
2017-05-21T23:10:27.969Z,11.84
2017-05-21T23:12:56.876Z,10.66
2017-05-21T23:15:26.136Z,11.10
2017-05-21T23:17:55.071Z,11.50
2017-05-21T23:20:24.048Z,10.94
2017-05-21T23:22:53.393Z,12.24
2017-05-21T23:25:22.326Z,11.48
2017-05-21T23:27:51.255Z,13.06
2017-05-21T23:30:20.550Z,10.60
2017-05-21T23:32:49.452Z,11.44
2017-05-21T23:35:18.344Z,11.80
2017-05-21T23:37:47.550Z,10.24
2017-05-21T23:40:16.482Z,9.80
2017-05-21T23:42:45.413Z,10.96
2017-05-21T23:45:14.733Z,10.60
2017-05-21T23:47:43.641Z,9.66
2017-05-21T23:50:12.563Z,10.54
2017-05-21T23:52:41.832Z,9.74
2017-05-21T23:55:10.745Z,10.40
2017-05-21T23:57:39.674Z,9.96
